Time;durP1;ratioP1;P1;durP2;ratioP2;P2;SDS_P1;SDS_P2;PMS_P1;PMS_P2;Temp;Humidity;BMP_temperature;BMP_pressure;BME280_temperature;BME280_humidity;BME280_pressure;Samples;Min_cycle;Max_cycle;Signal;HPM_P1;HPM_P2
2022/01/27 00:03:32;;;;;;;0.70;0.70;;;;;;;-2.19;93.38;98159.09;29371;220;64008;-70
2022/01/27 00:04:19;;;;;;;0.70;0.70;;;;;;;-2.23;93.47;98168.44;29373;211;63005;-68
2022/01/27 00:05:04;;;;;;;0.80;0.80;;;;;;;-2.26;93.26;98163.47;29373;239;63009;-68
2022/01/27 00:05:41;;;;;;;0.60;0.60;;;;;;;-2.30;93.28;98162.19;29373;211;63005;-67
2022/01/27 00:06:14;;;;;;;0.85;0.85;;;;;;;-2.31;93.22;98160.53;29373;283;63009;-55
2022/01/27 00:06:45;;;;;;;0.70;0.70;;;;;;;-2.31;93.29;98160.53;29373;197;63005;-69
2022/01/27 00:07:17;;;;;;;0.70;0.70;;;;;;;-2.29;93.44;98160.34;29373;210;63009;-69
2022/01/27 00:08:54;;;;;;;0.70;0.70;;;;;;;-2.26;93.77;98160.81;29371;268;64009;-56
2022/01/27 00:10:44;;;;;;;0.70;0.70;;;;;;;-2.31;93.55;98154.38;29417;197;63009;-68
2022/01/27 00:11:17;;;;;;;0.70;0.70;;;;;;;-2.30;93.57;98156.87;29395;232;63005;-68
2022/01/27 00:11:50;;;;;;;0.70;0.70;;;;;;;-2.30;93.94;98154.22;29373;199;63009;-69
2022/01/27 00:12:21;;;;;;;1.23;1.23;;;;;;;-2.28;93.92;98162.00;29373;306;63005;-68
2022/01/27 00:12:52;;;;;;;0.70;0.70;;;;;;;-2.30;93.73;98151.56;29373;197;63009;-69
2022/01/27 00:13:32;;;;;;;0.70;0.70;;;;;;;-2.31;93.78;98151.72;29371;215;64005;-68
2022/01/27 00:14:04;;;;;;;0.70;0.70;;;;;;;-2.33;93.91;98151.09;29373;202;63009;-67
2022/01/27 00:14:44;;;;;;;0.70;0.70;;;;;;;-2.34;93.89;98142.28;29373;242;63005;-56
2022/01/27 00:15:27;;;;;;;0.80;0.80;;;;;;;-2.33;93.91;98149.25;29395;259;63009;-55
2022/01/27 00:16:18;;;;;;;0.70;0.70;;;;;;;-2.31;93.82;98149.06;29395;211;63004;-55
2022/01/27 00:16:58;;;;;;;0.70;0.70;;;;;;;-2.29;93.99;98147.88;29373;207;63009;-56
2022/01/27 00:17:32;;;;;;;1.25;1.25;;;;;;;-2.27;93.92;98142.38;29373;312;63004;-56
2022/01/27 00:18:11;;;;;;;0.70;0.70;;;;;;;-2.26;94.13;98146.69;29373;211;63008;-57
2022/01/27 00:18:47;;;;;;;0.70;0.70;;;;;;;-2.27;93.76;98145.88;29371;224;64005;-58
2022/01/27 00:19:18;;;;;;;0.70;0.70;;;;;;;-2.28;93.98;98152.19;29372;206;63009;-68
2022/01/27 00:19:50;;;;;;;0.70;0.70;;;;;;;-2.29;93.58;98147.88;29373;226;63005;-68
2022/01/27 00:20:22;;;;;;;0.70;0.70;;;;;;;-2.29;93.97;98147.06;29373;218;63018;-56
2022/01/27 00:20:53;;;;;;;0.70;0.70;;;;;;;-2.30;93.82;98156.87;29373;235;63017;-67
2022/01/27 00:21:29;;;;;;;0.70;0.70;;;;;;;-2.29;94.11;98147.06;29373;244;63009;-55
2022/01/27 00:22:00;;;;;;;0.70;0.70;;;;;;;-2.28;94.13;98154.03;29373;226;63005;-56
2022/01/27 00:22:32;;;;;;;0.68;0.68;;;;;;;-2.29;94.16;98147.88;29373;202;63009;-69
2022/01/27 00:23:04;;;;;;;0.75;0.75;;;;;;;-2.31;93.80;98144.59;29373;204;63009;-56
2022/01/27 00:23:36;;;;;;;0.70;0.70;;;;;;;-2.35;93.64;98148.59;29373;226;63009;-67
2022/01/27 00:24:07;;;;;;;0.62;0.62;;;;;;;-2.35;94.01;98140.63;29371;219;64004;-56
2022/01/27 00:24:38;;;;;;;0.70;0.70;;;;;;;-2.35;93.86;98148.59;29373;237;63004;-68
2022/01/27 00:25:10;;;;;;;0.60;0.60;;;;;;;-2.33;93.87;98140.44;29373;238;63004;-67
2022/01/27 00:25:42;;;;;;;0.70;0.70;;;;;;;-2.33;94.19;98151.91;29373;273;63008;-56
2022/01/27 00:26:16;;;;;;;0.70;0.70;;;;;;;-2.30;93.87;98140.91;29373;220;63005;-55
2022/01/27 00:26:48;;;;;;;0.70;0.70;;;;;;;-2.27;94.14;98140.56;29373;226;63009;-55
2022/01/27 00:27:20;;;;;;;0.70;0.70;;;;;;;-2.26;94.01;98142.22;29373;239;63005;-56
2022/01/27 00:27:53;;;;;;;0.70;0.70;;;;;;;-2.24;94.31;98145.50;29373;209;63009;-68
2022/01/27 00:28:24;;;;;;;0.70;0.70;;;;;;;-2.22;93.99;98143.50;29373;220;63005;-56
2022/01/27 00:28:55;;;;;;;0.70;0.70;;;;;;;-2.21;94.01;98139.84;29373;216;63009;-69
2022/01/27 00:29:26;;;;;;;0.60;0.60;;;;;;;-2.21;94.11;98145.16;29371;215;64005;-55
2022/01/27 00:30:03;;;;;;;0.70;0.70;;;;;;;-2.22;94.12;98132.88;29373;231;63009;-56
2022/01/27 00:30:39;;;;;;;0.70;0.70;;;;;;;-2.22;93.93;98142.69;29373;231;63004;-69
2022/01/27 00:31:10;;;;;;;0.60;0.60;;;;;;;-2.20;94.12;98143.31;29373;265;63009;-55
2022/01/27 00:31:42;;;;;;;0.70;0.70;;;;;;;-2.20;94.11;98145.97;29373;210;63004;-68
2022/01/27 00:32:13;;;;;;;0.70;0.70;;;;;;;-2.19;94.11;98143.13;29373;202;63009;-69
2022/01/27 00:32:45;;;;;;;2.35;2.30;;;;;;;-2.18;94.04;98139.47;29373;208;63004;-56
2022/01/27 00:33:16;;;;;;;0.60;0.60;;;;;;;-2.15;94.04;98141.78;29372;207;63008;-68
2022/01/27 00:33:48;;;;;;;0.60;0.60;;;;;;;-2.15;93.77;98141.78;29373;202;63005;-55
2022/01/27 00:34:19;;;;;;;0.70;0.70;;;;;;;-2.14;94.10;98143.44;29373;230;63009;-67
2022/01/27 00:34:50;;;;;;;0.70;0.70;;;;;;;-2.13;93.76;98138.94;29371;223;64017;-68
2022/01/27 00:35:22;;;;;;;0.60;0.60;;;;;;;-2.14;93.65;98138.09;29373;210;63009;-68
2022/01/27 00:35:53;;;;;;;0.60;0.60;;;;;;;-2.14;93.70;98135.44;29373;202;63005;-67
2022/01/27 00:36:25;;;;;;;0.70;0.70;;;;;;;-2.14;93.97;98135.44;29373;245;63009;-55
2022/01/27 00:36:56;;;;;;;0.60;0.60;;;;;;;-2.15;93.68;98133.81;29373;220;63005;-56
2022/01/27 00:37:28;;;;;;;0.60;0.60;;;;;;;-2.17;93.62;98140.31;29373;203;63020;-67
2022/01/27 00:37:59;;;;;;;0.60;0.60;;;;;;;-2.17;93.53;98129.66;29373;206;63004;-69
2022/01/27 00:38:32;;;;;;;0.60;0.60;;;;;;;-2.18;93.84;98134.16;29373;231;63009;-68
2022/01/27 00:39:05;;;;;;;0.60;0.60;;;;;;;-2.16;93.84;98137.47;29371;236;64004;-67
2022/01/27 00:39:36;;;;;;;0.60;0.60;;;;;;;-2.15;93.87;98131.13;29373;202;63009;-68
2022/01/27 00:40:11;;;;;;;0.65;0.65;;;;;;;-2.14;93.82;98130.12;29373;214;63004;-54
2022/01/27 00:40:44;;;;;;;0.70;0.70;;;;;;;-2.14;93.53;98132.78;29371;227;64008;-55
2022/01/27 00:41:19;;;;;;;2.50;2.37;;;;;;;-2.15;93.46;98123.16;29373;211;63004;-56
2022/01/27 00:41:51;;;;;;;0.60;0.60;;;;;;;-2.17;93.68;98130.50;29373;282;63024;-70
2022/01/27 00:42:24;;;;;;;0.70;0.70;;;;;;;-2.17;93.56;98127.84;29373;222;63009;-68
2022/01/27 00:42:56;;;;;;;0.70;0.70;;;;;;;-2.18;93.80;98123.53;29373;257;63009;-56
2022/01/27 00:43:27;;;;;;;0.70;0.70;;;;;;;-2.21;93.68;98129.19;29373;204;63005;-69
2022/01/27 00:43:59;;;;;;;1.00;1.00;;;;;;;-2.23;93.99;98125.91;29373;293;63024;-55
2022/01/27 00:44:34;;;;;;;0.60;0.60;;;;;;;-2.26;94.11;98128.91;29371;209;64005;-56
2022/01/27 00:45:06;;;;;;;0.80;0.80;;;;;;;-2.25;94.02;98125.25;29373;230;63014;-68
2022/01/27 00:45:40;;;;;;;0.60;0.60;;;;;;;-2.25;93.90;98127.91;29373;203;63004;-55
2022/01/27 00:46:16;;;;;;;0.60;0.60;;;;;;;-2.25;94.11;98125.25;29373;202;63009;-67
2022/01/27 00:46:47;;;;;;;0.70;0.70;;;;;;;-2.25;93.90;98122.59;29373;217;63004;-68
2022/01/27 00:47:19;;;;;;;1.95;1.90;;;;;;;-2.25;94.15;98114.62;29373;254;63008;-56
2022/01/27 00:47:51;;;;;;;0.60;0.60;;;;;;;-2.24;93.96;98123.41;29373;202;63004;-67
2022/01/27 00:48:22;;;;;;;0.60;0.60;;;;;;;-2.25;94.24;98127.09;29373;223;63009;-68
2022/01/27 00:48:54;;;;;;;0.60;0.60;;;;;;;-2.27;94.28;98126.44;29371;217;64005;-68
2022/01/27 00:49:25;;;;;;;0.60;0.60;;;;;;;-2.28;94.23;98122.94;29373;212;63009;-57
2022/01/27 00:49:57;;;;;;;0.70;0.70;;;;;;;-2.27;94.29;98126.44;29373;197;63016;-56
2022/01/27 00:50:31;;;;;;;0.70;0.70;;;;;;;-2.26;94.23;98126.25;29373;219;63009;-67
2022/01/27 00:51:06;;;;;;;0.60;0.60;;;;;;;-2.26;94.15;98126.25;29373;254;63005;-55
2022/01/27 00:51:40;;;;;;;0.70;0.70;;;;;;;-2.24;94.41;98123.41;29373;222;63009;-69
2022/01/27 00:52:16;;;;;;;0.70;0.70;;;;;;;-2.24;94.63;98124.25;29371;281;64005;-67
2022/01/27 00:52:49;;;;;;;0.70;0.70;;;;;;;-2.22;94.66;98119.56;29371;257;64009;-68
2022/01/27 00:53:40;;;;;;;0.60;0.60;;;;;;;-2.19;94.22;98126.37;29373;274;63004;-55
2022/01/27 00:54:20;;;;;;;0.70;0.70;;;;;;;-2.16;94.48;98126.81;29395;223;63025;-56
2022/01/27 00:54:53;;;;;;;2.78;2.65;;;;;;;-2.14;94.26;98130.12;29395;255;63004;-66
2022/01/27 00:55:26;;;;;;;0.60;0.60;;;;;;;-2.15;94.12;98131.13;29373;226;63025;-67
2022/01/27 00:56:06;;;;;;;0.70;0.70;;;;;;;-2.14;94.13;98134.63;29373;203;63005;-68
2022/01/27 00:56:48;;;;;;;0.70;0.70;;;;;;;-2.15;94.31;98128.47;29373;272;63009;-67
2022/01/27 00:57:58;;;;;;;0.70;0.70;;;;;;;-2.14;94.06;98135.44;29371;299;64005;-70
2022/01/27 00:59:58;;;;;;;5.53;5.10;;;;;;;-2.15;93.89;98128.47;29395;222;63018;-69
2022/01/27 01:00:36;;;;;;;0.70;0.70;;;;;;;-2.15;93.73;98127.66;29373;226;63004;-68
2022/01/27 01:01:11;;;;;;;0.60;0.60;;;;;;;-2.13;94.04;98136.28;29371;197;64009;-56
2022/01/27 01:01:49;;;;;;;0.70;0.70;;;;;;;-2.12;94.14;98127.28;29373;250;63018;-67
2022/01/27 01:02:39;;;;;;;0.60;0.60;;;;;;;-2.12;94.00;98127.28;29373;214;63008;-55
2022/01/27 01:03:22;;;;;;;0.60;0.60;;;;;;;-2.12;94.03;98136.09;29373;243;63005;-69
2022/01/27 01:03:58;;;;;;;0.70;0.70;;;;;;;-2.12;93.93;98130.78;29373;222;63009;-67
2022/01/27 01:04:33;;;;;;;0.70;0.70;;;;;;;-2.12;93.75;98136.09;29373;284;63005;-55
2022/01/27 01:06:19;;;;;;;0.70;0.70;;;;;;;-2.10;93.93;98133.25;29371;206;64005;-68
2022/01/27 01:06:52;;;;;;;0.70;0.70;;;;;;;-2.12;93.92;98133.44;29373;203;63009;-56
2022/01/27 01:07:23;;;;;;;0.60;0.60;;;;;;;-2.15;93.71;98131.13;29373;264;63016;-68
2022/01/27 01:08:00;;;;;;;0.60;0.60;;;;;;;-2.17;93.60;98130.50;29373;264;63009;-68
2022/01/27 01:15:26;;;;;;;0.70;0.70;;;;;;;-2.17;93.69;98129.66;29373;206;63009;-56
2022/01/27 01:16:01;;;;;;;0.60;0.60;;;;;;;-2.16;93.61;98132.16;29373;279;63004;-70
2022/01/27 01:17:38;;;;;;;0.70;0.70;;;;;;;-2.14;93.78;98132.78;29373;315;63004;-68
2022/01/27 01:19:23;;;;;;;0.68;0.68;;;;;;;-2.12;93.79;98133.44;29373;253;63016;-55
2022/01/27 01:29:24;;;;;;;0.70;0.70;;;;;;;-2.11;93.79;98124.44;29373;282;63018;-67
2022/01/27 01:32:34;;;;;;;0.70;0.70;;;;;;;-2.20;93.11;98128.19;29373;253;63009;-68
2022/01/27 01:32:57;;;;;;;0.70;0.70;;;;;;;-2.23;93.06;98125.91;29373;202;63004;-67
2022/01/27 01:33:33;;;;;;;0.95;0.95;;;;;;;-2.25;93.46;98138.53;29371;248;64009;-69
2022/01/27 01:34:18;;;;;;;0.70;0.70;;;;;;;-2.26;93.40;98136.06;29371;400;64005;-68
2022/01/27 01:34:51;;;;;;;0.70;0.70;;;;;;;-2.28;93.75;98130.94;29373;289;63009;-55
2022/01/27 01:35:47;;;;;;;0.70;0.70;;;;;;;-2.28;93.47;98132.75;29373;246;63005;-69
2022/01/27 01:36:34;;;;;;;0.70;0.70;;;;;;;-2.29;93.70;98131.94;29373;249;63009;-68
2022/01/27 01:37:09;;;;;;;0.60;0.60;;;;;;;-2.30;93.66;98127.63;29373;267;63018;-68
2022/01/27 01:37:42;;;;;;;0.70;0.70;;;;;;;-2.30;93.83;98130.28;29373;257;63009;-55
2022/01/27 01:38:17;;;;;;;0.70;0.70;;;;;;;-2.29;93.72;98131.09;29373;257;63004;-55
2022/01/27 01:38:49;;;;;;;0.70;0.70;;;;;;;-2.28;94.06;98133.59;29372;205;63015;-68
2022/01/27 01:39:26;;;;;;;0.70;0.70;;;;;;;-2.27;93.80;98134.41;29373;241;63004;-67
2022/01/27 01:40:00;;;;;;;0.70;0.70;;;;;;;-2.26;94.08;98133.41;29373;199;63009;-56
2022/01/27 01:40:31;;;;;;;0.70;0.70;;;;;;;-2.25;93.80;98132.41;29373;241;63004;-68
2022/01/27 01:41:02;;;;;;;0.70;0.70;;;;;;;-2.24;93.94;98129.56;29371;205;64009;-68
2022/01/27 01:41:33;;;;;;;0.70;0.70;;;;;;;-2.23;94.13;98130.38;29371;277;64005;-56
2022/01/27 01:42:10;;;;;;;0.70;0.70;;;;;;;-2.24;94.33;98126.91;29373;219;63009;-68
2022/01/27 01:42:43;;;;;;;0.65;0.65;;;;;;;-2.22;94.00;98124.88;29373;270;63005;-56
2022/01/27 01:43:15;;;;;;;0.70;0.70;;;;;;;-2.20;94.22;98130.84;29373;311;63009;-55
2022/01/27 01:43:46;;;;;;;0.70;0.70;;;;;;;-2.19;94.07;98132.50;29373;235;63005;-55
2022/01/27 01:44:18;;;;;;;0.70;0.70;;;;;;;-2.19;94.27;98129.84;29373;317;63009;-68
2022/01/27 01:44:49;;;;;;;0.70;0.70;;;;;;;-2.17;94.14;98129.66;29373;210;63004;-55
2022/01/27 01:45:21;;;;;;;1.33;1.33;;;;;;;-2.21;94.11;98123.88;29373;228;63009;-55
2022/01/27 01:45:52;;;;;;;0.70;0.70;;;;;;;-2.22;93.90;98124.88;29373;202;63004;-68
2022/01/27 01:46:23;;;;;;;0.70;0.70;;;;;;;-2.23;94.18;98131.22;29373;218;63009;-68
2022/01/27 01:46:56;;;;;;;0.70;0.70;;;;;;;-2.23;94.24;98120.59;29371;235;64004;-55
2022/01/27 01:47:27;;;;;;;0.70;0.70;;;;;;;-2.24;94.17;98129.56;29373;262;63008;-55
2022/01/27 01:47:58;;;;;;;0.70;0.70;;;;;;;-2.25;93.83;98125.25;29371;213;64004;-55
2022/01/27 01:48:29;;;;;;;0.70;0.70;;;;;;;-2.25;94.04;98132.41;29373;204;63009;-55
2022/01/27 01:49:01;;;;;;;0.70;0.70;;;;;;;-2.27;94.09;98124.59;29371;310;64005;-67
2022/01/27 01:49:32;;;;;;;0.70;0.70;;;;;;;-2.27;94.06;98129.91;29373;227;63009;-69
2022/01/27 01:50:07;;;;;;;0.70;0.70;;;;;;;-2.27;94.08;98131.75;29371;213;64005;-68
2022/01/27 01:50:39;;;;;;;0.70;0.70;;;;;;;-2.27;94.00;98129.91;29373;293;63009;-55
2022/01/27 01:51:11;;;;;;;1.92;1.83;;;;;;;-2.26;93.92;98126.25;29373;214;63005;-70
2022/01/27 01:51:43;;;;;;;0.62;0.62;;;;;;;-2.26;93.99;98126.25;29373;215;63009;-67
2022/01/27 01:52:15;;;;;;;0.70;0.70;;;;;;;-2.27;93.90;98135.25;29373;308;63004;-70
2022/01/27 01:52:46;;;;;;;0.70;0.70;;;;;;;-2.26;94.21;98128.09;29373;304;63009;-55
2022/01/27 01:53:17;;;;;;;0.70;0.70;;;;;;;-2.25;93.99;98121.75;29373;350;63004;-71
2022/01/27 01:53:48;;;;;;;35.47;19.35;;;;;;;-2.24;94.29;98124.25;29363;202;65009;-56
2022/01/27 01:54:20;;;;;;;0.70;0.70;;;;;;;-2.22;94.12;98124.06;29371;196;64004;-69
2022/01/27 01:54:54;;;;;;;0.70;0.70;;;;;;;-2.24;94.34;98124.25;29373;204;63008;-70
2022/01/27 01:55:25;;;;;;;0.70;0.70;;;;;;;-2.23;94.08;98123.25;29373;237;63005;-68
2022/01/27 01:55:58;;;;;;;0.70;0.70;;;;;;;-2.23;93.99;98120.59;29373;241;63009;-68
2022/01/27 01:56:29;;;;;;;0.70;0.70;;;;;;;-2.24;93.91;98124.25;29373;252;63005;-68
2022/01/27 01:57:01;;;;;;;0.70;0.70;;;;;;;-2.23;94.23;98131.22;29373;207;63009;-55
2022/01/27 01:57:32;;;;;;;0.62;0.62;;;;;;;-2.23;94.15;98123.25;29373;263;63005;-68
2022/01/27 01:58:03;;;;;;;0.70;0.70;;;;;;;-2.22;94.15;98127.56;29373;203;63009;-69
2022/01/27 01:58:34;;;;;;;0.70;0.70;;;;;;;-2.20;94.19;98125.53;29373;225;63005;-67
2022/01/27 01:59:06;;;;;;;0.70;0.70;;;;;;;-2.19;94.25;98121.03;29371;230;64009;-55
2022/01/27 01:59:37;;;;;;;0.60;0.60;;;;;;;-2.20;93.96;98109.59;29373;249;63004;-55
2022/01/27 02:00:11;;;;;;;0.70;0.70;;;;;;;-2.18;94.37;98117.38;29373;224;63009;-70
2022/01/27 02:00:43;;;;;;;0.70;0.70;;;;;;;-2.18;94.04;98118.22;29373;202;63004;-69
2022/01/27 02:01:15;;;;;;;0.98;0.98;;;;;;;-2.18;94.04;98117.38;29371;215;64009;-56
2022/01/27 02:01:47;;;;;;;0.70;0.70;;;;;;;-2.20;94.02;98112.25;29373;332;63004;-55
2022/01/27 02:02:19;;;;;;;0.70;0.70;;;;;;;-2.19;94.08;98111.22;29373;208;63008;-55
2022/01/27 02:02:51;;;;;;;0.70;0.70;;;;;;;-2.18;94.04;98112.88;29373;201;63005;-68
2022/01/27 02:03:23;;;;;;;0.70;0.70;;;;;;;-2.17;94.41;98113.72;29373;217;63009;-55
2022/01/27 02:03:54;;;;;;;0.70;0.70;;;;;;;-2.18;94.09;98107.56;29373;211;63005;-55
2022/01/27 02:04:26;;;;;;;0.70;0.70;;;;;;;-2.16;94.19;98105.56;29371;219;64009;-55
2022/01/27 02:04:57;;;;;;;0.60;0.60;;;;;;;-2.15;94.38;98103.72;29371;263;64005;-70
2022/01/27 02:05:34;;;;;;;0.70;0.70;;;;;;;-2.15;94.35;98107.22;29373;233;63009;-56
2022/01/27 02:06:07;;;;;;;0.70;0.70;;;;;;;-2.13;94.37;98099.88;29373;209;63005;-55
2022/01/27 02:07:02;;;;;;;0.60;0.60;;;;;;;-2.14;94.28;98098.22;29373;333;63023;-55
2022/01/27 02:07:57;;;;;;;0.70;0.70;;;;;;;-2.14;94.22;98100.88;29371;287;64004;-55
2022/01/27 02:08:41;;;;;;;0.70;0.70;;;;;;;-2.14;94.19;98098.22;29373;209;63009;-56
2022/01/27 02:09:27;;;;;;;0.60;0.60;;;;;;;-2.14;94.24;98097.41;29373;221;63004;-56
2022/01/27 02:10:27;;;;;;;0.62;0.62;;;;;;;-2.13;93.97;98097.22;29373;302;63008;-55
2022/01/27 02:18:18;;;;;;;0.70;0.70;;;;;;;-2.18;94.31;98080.16;29372;239;64005;-56
2022/01/27 02:18:49;;;;;;;0.70;0.70;;;;;;;-2.18;94.17;98072.19;29373;205;63009;-69
2022/01/27 02:19:23;;;;;;;0.70;0.70;;;;;;;-2.16;94.08;98072.81;29373;206;63005;-68
2022/01/27 02:19:56;;;;;;;0.70;0.70;;;;;;;-2.16;94.36;98073.66;29373;224;63009;-69
2022/01/27 02:20:31;;;;;;;0.70;0.70;;;;;;;-2.15;94.33;98075.28;29373;230;63005;-55
2022/01/27 02:21:02;;;;;;;0.70;0.70;;;;;;;-2.14;93.99;98074.28;29371;267;64009;-56
2022/01/27 02:21:45;;;;;;;0.70;0.70;;;;;;;-2.13;93.94;98073.28;29373;216;63005;-56
2022/01/27 02:22:19;;;;;;;0.70;0.70;;;;;;;-2.14;94.04;98082.28;29373;216;63009;-55
2022/01/27 02:22:50;;;;;;;0.70;0.70;;;;;;;-2.15;93.63;98075.28;29373;234;63004;-56
2022/01/27 02:23:21;;;;;;;0.70;0.70;;;;;;;-2.16;93.71;98080.81;29373;262;63009;-68
2022/01/27 02:23:52;;;;;;;0.70;0.70;;;;;;;-2.18;93.43;98075.66;29373;223;63004;-68
2022/01/27 02:24:25;;;;;;;0.70;0.70;;;;;;;-2.20;93.74;98077.69;29373;253;63009;-68
2022/01/27 02:24:57;;;;;;;0.70;0.70;;;;;;;-2.19;93.51;98078.50;29373;228;63004;-68
2022/01/27 02:25:28;;;;;;;0.60;0.60;;;;;;;-2.20;93.66;98077.69;29373;262;63009;-55
2022/01/27 02:26:00;;;;;;;0.60;0.60;;;;;;;-2.19;93.57;98081.16;29373;212;63005;-55
2022/01/27 02:26:31;;;;;;;0.60;0.60;;;;;;;-2.20;93.84;98074.19;29371;283;64005;-71
2022/01/27 02:27:04;;;;;;;0.60;0.60;;;;;;;-2.20;93.65;98077.69;29373;209;63005;-69
2022/01/27 02:27:37;;;;;;;0.70;0.70;;;;;;;-2.20;93.83;98077.69;29373;267;63009;-69
2022/01/27 02:28:08;;;;;;;0.70;0.70;;;;;;;-2.21;93.54;98076.03;29373;249;63015;-69
2022/01/27 02:28:39;;;;;;;0.70;0.70;;;;;;;-2.21;93.63;98069.88;29373;214;63009;-69
2022/01/27 02:29:10;;;;;;;2.33;2.25;;;;;;;-2.22;93.40;98078.88;29373;222;63005;-68
2022/01/27 02:29:44;;;;;;;0.60;0.60;;;;;;;-2.23;93.43;98071.91;29373;216;63009;-68
2022/01/27 02:30:15;;;;;;;0.60;0.60;;;;;;;-2.24;93.21;98076.38;29373;206;63004;-67
2022/01/27 02:30:46;;;;;;;0.60;0.60;;;;;;;-2.24;93.50;98076.38;29373;246;63009;-67
2022/01/27 02:31:18;;;;;;;0.60;0.60;;;;;;;-2.26;93.21;98077.56;29373;207;63004;-68
2022/01/27 02:31:54;;;;;;;0.70;0.70;;;;;;;-2.25;93.42;98074.75;29371;261;64009;-68
2022/01/27 02:32:26;;;;;;;0.60;0.60;;;;;;;-2.22;93.73;98076.22;29371;239;64004;-68
2022/01/27 02:32:58;;;;;;;0.98;0.98;;;;;;;-2.21;93.86;98076.03;29373;228;63009;-55
2022/01/27 02:33:32;;;;;;;0.70;0.70;;;;;;;-2.18;93.49;98080.16;29373;207;63018;-55
2022/01/27 02:34:05;;;;;;;0.60;0.60;;;;;;;-2.17;93.58;98074.66;29373;216;63009;-68
2022/01/27 02:34:36;;;;;;;0.70;0.70;;;;;;;-2.15;93.41;98075.28;29373;226;63011;-67
2022/01/27 02:35:08;;;;;;;0.68;0.68;;;;;;;-2.15;93.73;98074.47;29373;221;63009;-56
2022/01/27 02:35:39;;;;;;;0.70;0.70;;;;;;;-2.15;93.45;98074.47;29373;232;63005;-70
2022/01/27 02:36:10;;;;;;;0.60;0.60;;;;;;;-2.15;93.51;98077.97;29373;216;63009;-68
2022/01/27 02:36:41;;;;;;;0.60;0.60;;;;;;;-2.15;93.34;98075.28;29373;250;63005;-55
2022/01/27 02:37:17;;;;;;;0.73;0.73;;;;;;;-2.16;93.26;98073.66;29371;248;64009;-68
2022/01/27 02:37:48;;;;;;;0.70;0.70;;;;;;;-2.15;93.52;98075.28;29373;224;63004;-68
2022/01/27 02:38:19;;;;;;;0.70;0.70;;;;;;;-2.16;93.58;98075.47;29373;216;63009;-69
2022/01/27 02:38:51;;;;;;;0.70;0.70;;;;;;;-2.16;93.29;98076.31;29373;202;63004;-69
2022/01/27 02:39:22;;;;;;;0.70;0.70;;;;;;;-2.16;93.56;98078.13;29373;196;63009;-68
2022/01/27 02:39:54;;;;;;;0.70;0.70;;;;;;;-2.15;93.34;98079.78;29373;216;63005;-70
2022/01/27 02:40:53;;;;;;;0.70;0.70;;;;;;;-2.15;93.50;98090.44;29373;244;63009;-68
2022/01/27 02:41:27;;;;;;;0.70;0.70;;;;;;;-2.15;93.50;98088.59;29373;266;63005;-70
2022/01/27 02:42:10;;;;;;;0.70;0.70;;;;;;;-2.15;93.41;98088.59;29373;204;63009;-69
2022/01/27 02:42:41;;;;;;;0.60;0.60;;;;;;;-2.16;93.17;98083.47;29371;202;64005;-69
2022/01/27 02:43:13;;;;;;;0.60;0.60;;;;;;;-2.19;93.15;98087.31;29373;198;63009;-68
2022/01/27 02:43:44;;;;;;;0.70;0.70;;;;;;;-2.19;93.37;98089.13;29371;237;64014;-68
2022/01/27 02:44:55;;;;;;;0.70;0.70;;;;;;;-2.18;93.37;98082.81;29373;277;63009;-56
2022/01/27 02:45:49;;;;;;;0.70;0.70;;;;;;;-2.18;93.44;98074.84;29371;210;64004;-55
2022/01/27 02:46:30;;;;;;;0.70;0.70;;;;;;;-2.18;93.46;98070.34;29373;219;63004;-69
2022/01/27 02:47:03;;;;;;;0.70;0.70;;;;;;;-2.17;93.23;98071.16;29373;207;63008;-68
2022/01/27 02:47:35;;;;;;;0.70;0.70;;;;;;;-2.17;93.38;98076.50;29371;210;64005;-69
2022/01/27 02:48:07;;;;;;;0.62;0.62;;;;;;;-2.18;93.44;98075.66;29373;198;63009;-55
2022/01/27 02:48:38;;;;;;;0.70;0.70;;;;;;;-2.18;93.30;98074.84;29373;260;63008;-68
2022/01/27 02:49:09;;;;;;;0.70;0.70;;;;;;;-2.18;93.46;98077.50;29371;235;64009;-56
2022/01/27 02:49:40;;;;;;;0.70;0.70;;;;;;;-2.18;93.49;98078.31;29373;229;63005;-56
2022/01/27 02:50:11;;;;;;;0.70;0.70;;;;;;;-2.19;93.55;98079.31;29373;286;63009;-68
2022/01/27 02:50:45;;;;;;;0.70;0.70;;;;;;;-2.18;93.22;98086.31;29373;203;63005;-55
2022/01/27 02:51:17;;;;;;;0.70;0.70;;;;;;;-2.17;93.29;98079.97;29373;272;63009;-68
2022/01/27 02:51:50;;;;;;;0.70;0.70;;;;;;;-2.16;93.60;98086.94;29373;213;63004;-68
2022/01/27 02:52:21;;;;;;;0.70;0.70;;;;;;;-2.16;93.63;98078.97;29371;264;64000;-68
2022/01/27 02:52:55;;;;;;;0.70;0.70;;;;;;;-2.15;93.63;98087.75;29373;238;63004;-70
2022/01/27 02:53:27;;;;;;;0.60;0.60;;;;;;;-2.14;93.58;98084.09;29371;229;64009;-55
2022/01/27 02:53:58;;;;;;;0.70;0.70;;;;;;;-2.13;93.68;98083.91;29373;208;63004;-69
2022/01/27 02:54:29;;;;;;;0.70;0.70;;;;;;;-2.13;93.61;98078.59;29373;215;63008;-55
2022/01/27 02:55:02;;;;;;;0.70;0.70;;;;;;;-2.12;93.54;98080.25;29373;241;63005;-67
2022/01/27 02:55:33;;;;;;;0.95;0.95;;;;;;;-2.11;93.52;98079.25;29373;281;63009;-56
2022/01/27 02:56:05;;;;;;;0.68;0.68;;;;;;;-2.11;93.47;98084.56;29373;227;63005;-68
2022/01/27 02:56:43;;;;;;;0.70;0.70;;;;;;;-2.11;93.64;98067.78;29373;239;63009;-67
2022/01/27 02:57:15;;;;;;;0.60;0.60;;;;;;;-2.09;93.82;98069.25;29373;233;63005;-68
2022/01/27 02:57:47;;;;;;;0.70;0.70;;;;;;;-2.08;93.83;98070.88;29371;213;64009;-68
2022/01/27 02:58:18;;;;;;;0.70;0.70;;;;;;;-2.08;93.79;98073.53;29373;197;63005;-68
2022/01/27 02:58:49;;;;;;;0.70;0.70;;;;;;;-2.07;93.81;98074.34;29371;239;64009;-68
2022/01/27 02:59:21;;;;;;;4.85;2.55;;;;;;;-2.09;93.73;98079.87;29373;236;63004;-69
2022/01/27 02:59:53;;;;;;;0.70;0.70;;;;;;;-2.10;93.12;98072.91;29373;225;63009;-55
2022/01/27 03:00:25;;;;;;;7.30;6.55;;;;;;;-2.13;93.41;98070.63;29373;203;63004;-69
2022/01/27 03:00:56;;;;;;;0.70;0.70;;;;;;;-2.13;93.36;98073.28;29373;274;63009;-68
2022/01/27 03:01:28;;;;;;;0.68;0.68;;;;;;;-2.13;93.55;98077.78;29373;255;63004;-55
2022/01/27 03:01:59;;;;;;;0.60;0.60;;;;;;;-2.14;93.33;98076.94;29373;246;63008;-69
2022/01/27 03:02:30;;;;;;;0.60;0.60;;;;;;;-2.16;93.28;98073.66;29373;246;63005;-68
2022/01/27 03:03:02;;;;;;;0.60;0.60;;;;;;;-2.16;93.05;98073.66;29373;207;63009;-70
2022/01/27 03:03:33;;;;;;;0.60;0.60;;;;;;;-2.17;93.25;98077.31;29373;227;63005;-67
2022/01/27 03:04:04;;;;;;;0.62;0.62;;;;;;;-2.17;92.99;98082.63;29371;199;64009;-70
2022/01/27 03:04:36;;;;;;;0.70;0.70;;;;;;;-2.16;93.29;98078.13;29373;214;63014;-68
2022/01/27 03:05:08;;;;;;;0.60;0.60;;;;;;;-2.15;93.19;98085.09;29373;203;63025;-70
2022/01/27 03:05:40;;;;;;;0.70;0.70;;;;;;;-2.15;93.33;98083.28;29373;239;63005;-69
2022/01/27 03:06:11;;;;;;;0.80;0.80;;;;;;;-2.14;93.05;98087.59;29373;216;63009;-68
2022/01/27 03:06:44;;;;;;;0.60;0.60;;;;;;;-2.14;93.06;98087.59;29373;215;63004;-55
2022/01/27 03:07:15;;;;;;;0.60;0.60;;;;;;;-2.15;92.98;98091.25;29373;202;63009;-55
2022/01/27 03:07:48;;;;;;;0.60;0.60;;;;;;;-2.14;93.25;98086.75;29373;225;63004;-69
2022/01/27 03:08:19;;;;;;;0.60;0.60;;;;;;;-2.13;93.11;98093.72;29371;208;64009;-68
2022/01/27 03:08:50;;;;;;;0.60;0.60;;;;;;;-2.13;93.33;98094.56;29373;263;63004;-68
2022/01/27 03:09:21;;;;;;;0.60;0.60;;;;;;;-2.13;93.07;98099.88;29373;209;63018;-55
2022/01/27 03:09:56;;;;;;;0.60;0.60;;;;;;;-2.13;93.25;98094.56;29373;223;63009;-67
2022/01/27 03:10:32;;;;;;;0.70;0.70;;;;;;;-2.16;92.90;98100.25;29373;251;63017;-55
2022/01/27 03:11:11;;;;;;;0.60;0.60;;;;;;;-2.19;93.06;98100.59;29373;236;63005;-70
2022/01/27 03:11:57;;;;;;;0.60;0.60;;;;;;;-2.19;92.88;98100.59;29373;224;63009;-55
2022/01/27 03:12:30;;;;;;;0.60;0.60;;;;;;;-2.17;93.14;98097.75;29373;238;63005;-55
2022/01/27 03:13:01;;;;;;;0.60;0.60;;;;;;;-2.17;92.99;98103.91;29373;228;63009;-70
2022/01/27 03:13:33;;;;;;;0.70;0.70;;;;;;;-2.17;93.25;98109.22;29371;207;64005;-69
2022/01/27 03:14:06;;;;;;;0.60;0.60;;;;;;;-2.17;92.91;98097.75;29373;198;63009;-56
2022/01/27 03:14:39;;;;;;;0.70;0.70;;;;;;;-2.15;92.93;98111.69;29373;197;63004;-69
2022/01/27 03:15:11;;;;;;;0.60;0.60;;;;;;;-2.15;93.08;98109.88;29373;232;63009;-67
2022/01/27 03:15:42;;;;;;;0.70;0.70;;;;;;;-2.15;92.99;98106.38;29373;251;63004;-55
2022/01/27 03:16:14;;;;;;;0.70;0.70;;;;;;;-2.17;92.99;98111.88;29372;303;64009;-71
2022/01/27 03:16:47;;;;;;;0.70;0.70;;;;;;;-2.18;93.13;98101.44;29371;232;64004;-55
2022/01/27 03:17:18;;;;;;;0.70;0.70;;;;;;;-2.17;92.79;98106.56;29373;196;63008;-69
2022/01/27 03:17:49;;;;;;;0.68;0.68;;;;;;;-2.17;93.18;98103.91;29373;229;63005;-68
2022/01/27 03:18:21;;;;;;;0.70;0.70;;;;;;;-2.16;93.15;98110.87;29371;274;64009;-68
2022/01/27 03:18:52;;;;;;;0.70;0.70;;;;;;;-2.16;93.07;98110.87;29373;202;63010;-67